Time;durP1;ratioP1;P1;durP2;ratioP2;P2;SDS_P1;SDS_P2;PMS_P1;PMS_P2;Temp;Humidity;BMP_temperature;BMP_pressure;BME280_temperature;BME280_humidity;BME280_pressure;Samples;Min_cycle;Max_cycle;Signal;HPM_P1;HPM_P2
2022/11/25 00:01:24;;;;;;;;;;;;;;;;;;5045783;28;19935;-58
2022/11/25 00:03:50;;;;;;;;;;;;;;;;;;5046727;28;19923;-59
2022/11/25 00:06:15;;;;;;;;;;;;;;;;;;5046767;28;19913;-57
2022/11/25 00:08:41;;;;;;;;;;;;;;;;;;5074131;28;19920;-57
2022/11/25 00:11:07;;;;;;;;;;;;;;;;;;5045773;28;19999;-58
2022/11/25 00:13:32;;;;;;;;;;;;;;;;;;5043593;28;19943;-58
2022/11/25 00:16:05;;;;;;;;;;;;;;;;;;5046027;28;19917;-57
2022/11/25 00:18:30;;;;;;;;;;;;;;;;;;5042784;28;19917;-58
2022/11/25 00:20:56;;;;;;;;;;;;;;;;;;5042982;28;19927;-58
2022/11/25 00:23:21;;;;;;;;;;;;;;;;;;5045999;28;19955;-58
2022/11/25 00:25:47;;;;;;;;;;;;;;;;;;5042258;28;19912;-58
2022/11/25 00:28:12;;;;;;;;;;;;;;;;;;5044063;28;19966;-58
2022/11/25 00:30:37;;;;;;;;;;;;;;;;;;5042215;28;20385;-58
2022/11/25 00:33:02;;;;;;;;;;;;;;;;;;5045003;28;20052;-57
2022/11/25 00:35:28;;;;;;;;;;;;;;;;;;5041686;28;20334;-58
2022/11/25 00:37:53;;;;;;;;;;;;;;;;;;5044895;28;20290;-57
2022/11/25 00:40:18;;;;;;;;;;;;;;;;;;5045777;28;19916;-57
2022/11/25 00:45:27;;;;;;;;;;;;;;;;;;5040990;28;19963;-57
2022/11/25 00:47:53;;;;;;;;;;;;;;;;;;5043010;28;19921;-58
2022/11/25 00:50:18;;;;;;;;;;;;;;;;;;5045866;28;19931;-58
2022/11/25 00:52:43;;;;;;;;;;;;;;;;;;5044128;28;19913;-57
2022/11/25 00:55:09;;;;;;;;;;;;;;;;;;5045464;28;20436;-57
2022/11/25 00:57:34;;;;;;;;;;;;;;;;;;5046523;28;19919;-57
2022/11/25 00:59:59;;;;;;;;;;;;;;;;;;5048409;28;20023;-57
2022/11/25 01:02:24;;;;;;;;;;;;;;;;;;5047869;28;19919;-57
2022/11/25 01:04:50;;;;;;;;;;;;;;;;;;5046673;28;19916;-58
2022/11/25 01:07:16;;;;;;;;;;;;;;;;;;5048663;28;19919;-58
2022/11/25 01:09:41;;;;;;;;;;;;;;;;;;5048305;28;19913;-58
2022/11/25 01:12:06;;;;;;;;;;;;;;;;;;5051371;28;19921;-57
2022/11/25 01:14:31;;;;;;;;;;;;;;;;;;5049219;28;19952;-57
2022/11/25 01:16:57;;;;;;;;;;;;;;;;;;5048454;28;19956;-57
2022/11/25 01:19:22;;;;;;;;;;;;;;;;;;5045182;28;19921;-57
2022/11/25 01:21:47;;;;;;;;;;;;;;;;;;5048352;28;20317;-57
2022/11/25 01:24:14;;;;;;;;;;;;;;;;;;5043943;28;19913;-57
2022/11/25 01:26:39;;;;;;;;;;;;;;;;;;5046069;28;19916;-57
2022/11/25 01:29:06;;;;;;;;;;;;;;;;;;5045429;28;19966;-58
2022/11/25 01:31:33;;;;;;;;;;;;;;;;;;5043867;28;19963;-57
2022/11/25 01:34:02;;;;;;;;;;;;;;;;;;5044862;28;19917;-57
2022/11/25 01:36:28;;;;;;;;;;;;;;;;;;5048267;28;19916;-57
2022/11/25 01:38:55;;;;;;;;;;;;;;;;;;5043562;28;19924;-57
2022/11/25 01:41:21;;;;;;;;;;;;;;;;;;5044251;28;20398;-58
2022/11/25 01:44:05;;;;;;;;;;;;;;;;;;5044706;28;20285;-57
2022/11/25 01:46:37;;;;;;;;;;;;;;;;;;5049081;28;20388;-57
2022/11/25 01:49:05;;;;;;;;;;;;;;;;;;5046489;28;19912;-57
2022/11/25 01:51:39;;;;;;;;;;;;;;;;;;5048504;28;19966;-57
2022/11/25 01:54:05;;;;;;;;;;;;;;;;;;5042443;28;19919;-57
2022/11/25 01:56:36;;;;;;;;;;;;;;;;;;5051427;28;19912;-57
2022/11/25 01:59:01;;;;;;;;;;;;;;;;;;5046785;28;19943;-57
2022/11/25 02:01:26;;;;;;;;;;;;;;;;;;5046435;28;19913;-58
2022/11/25 02:03:54;;;;;;;;;;;;;;;;;;5047219;28;20007;-58
2022/11/25 02:06:22;;;;;;;;;;;;;;;;;;5046606;28;19940;-58
2022/11/25 02:08:50;;;;;;;;;;;;;;;;;;5046527;28;20630;-57
2022/11/25 02:11:15;;;;;;;;;;;;;;;;;;5048162;28;20299;-57
2022/11/25 02:13:41;;;;;;;;;;;;;;;;;;5045749;28;19928;-57
2022/11/25 02:16:06;;;;;;;;;;;;;;;;;;5047498;28;19923;-57
2022/11/25 02:18:32;;;;;;;;;;;;;;;;;;5047261;28;19917;-57
2022/11/25 02:20:57;;;;;;;;;;;;;;;;;;5043812;28;19917;-57
2022/11/25 02:23:32;;;;;;;;;;;;;;;;;;5047752;28;19913;-56
2022/11/25 02:25:57;;;;;;;;;;;;;;;;;;5045924;28;19913;-57
2022/11/25 02:28:24;;;;;;;;;;;;;;;;;;5044573;28;19996;-56
2022/11/25 02:30:50;;;;;;;;;;;;;;;;;;5044824;28;19920;-55
2022/11/25 02:33:16;;;;;;;;;;;;;;;;;;5048081;28;19912;-56
2022/11/25 02:35:48;;;;;;;;;;;;;;;;;;5044042;28;19913;-56
2022/11/25 02:38:15;;;;;;;;;;;;;;;;;;5044795;28;20407;-57
2022/11/25 02:40:48;;;;;;;;;;;;;;;;;;5046622;28;19913;-57
2022/11/25 02:43:14;;;;;;;;;;;;;;;;;;5046655;28;19919;-57
2022/11/25 02:46:00;;;;;;;;;;;;;;;;;;5046002;28;20285;-57
2022/11/25 02:48:26;;;;;;;;;;;;;;;;;;5046181;28;19942;-56
2022/11/25 02:50:51;;;;;;;;;;;;;;;;;;5049247;28;19912;-57
2022/11/25 02:53:16;;;;;;;;;;;;;;;;;;5052294;28;19961;-57
2022/11/25 02:55:42;;;;;;;;;;;;;;;;;;5045601;28;21229;-57
2022/11/25 02:58:07;;;;;;;;;;;;;;;;;;5048843;28;19913;-57
2022/11/25 03:00:32;;;;;;;;;;;;;;;;;;5047211;28;19919;-57
2022/11/25 03:02:58;;;;;;;;;;;;;;;;;;5045226;28;19916;-57
2022/11/25 03:05:23;;;;;;;;;;;;;;;;;;5045327;28;19908;-57
2022/11/25 03:07:48;;;;;;;;;;;;;;;;;;5046401;28;20293;-56
2022/11/25 03:10:14;;;;;;;;;;;;;;;;;;5044145;28;19913;-57
2022/11/25 03:12:39;;;;;;;;;;;;;;;;;;5048814;28;20007;-57
2022/11/25 03:15:04;;;;;;;;;;;;;;;;;;5043605;28;20285;-58
2022/11/25 03:17:30;;;;;;;;;;;;;;;;;;5042444;28;19924;-58
2022/11/25 03:19:55;;;;;;;;;;;;;;;;;;5042947;28;19916;-57
2022/11/25 03:22:20;;;;;;;;;;;;;;;;;;5045248;28;19912;-58
2022/11/25 03:24:45;;;;;;;;;;;;;;;;;;5042731;28;19915;-58
2022/11/25 03:27:11;;;;;;;;;;;;;;;;;;5044662;28;19917;-57
2022/11/25 03:29:36;;;;;;;;;;;;;;;;;;5041730;28;19909;-57
2022/11/25 03:32:01;;;;;;;;;;;;;;;;;;5042961;28;19913;-57
2022/11/25 03:34:27;;;;;;;;;;;;;;;;;;5043928;28;19919;-58
2022/11/25 03:36:52;;;;;;;;;;;;;;;;;;5046480;28;20392;-58
2022/11/25 03:39:17;;;;;;;;;;;;;;;;;;5043335;28;19978;-57
2022/11/25 03:41:42;;;;;;;;;;;;;;;;;;5048031;28;19912;-58
2022/11/25 03:44:08;;;;;;;;;;;;;;;;;;5046992;28;19926;-57
2022/11/25 03:46:33;;;;;;;;;;;;;;;;;;5045247;28;19923;-58
2022/11/25 03:48:58;;;;;;;;;;;;;;;;;;5043582;28;19919;-57
2022/11/25 03:51:23;;;;;;;;;;;;;;;;;;5047142;28;19909;-58
2022/11/25 03:53:49;;;;;;;;;;;;;;;;;;5045953;28;20110;-57
2022/11/25 03:56:14;;;;;;;;;;;;;;;;;;5048039;28;20276;-57
2022/11/25 03:58:39;;;;;;;;;;;;;;;;;;5043655;28;20000;-57
2022/11/25 04:01:04;;;;;;;;;;;;;;;;;;5046059;28;19912;-57
2022/11/25 04:03:30;;;;;;;;;;;;;;;;;;5046290;28;19967;-57
2022/11/25 04:05:55;;;;;;;;;;;;;;;;;;5044817;28;19913;-57
2022/11/25 04:08:21;;;;;;;;;;;;;;;;;;5044196;28;19974;-57
2022/11/25 04:10:48;;;;;;;;;;;;;;;;;;5045486;28;21521;-57
2022/11/25 04:13:13;;;;;;;;;;;;;;;;;;5047379;28;19978;-57
2022/11/25 04:15:43;;;;;;;;;;;;;;;;;;5043481;28;19940;-57
2022/11/25 04:18:08;;;;;;;;;;;;;;;;;;5043299;28;19913;-57
2022/11/25 04:20:33;;;;;;;;;;;;;;;;;;5045664;28;19920;-57
2022/11/25 04:22:59;;;;;;;;;;;;;;;;;;5044335;28;19912;-58
2022/11/25 04:25:24;;;;;;;;;;;;;;;;;;5042278;28;19921;-57
2022/11/25 04:27:49;;;;;;;;;;;;;;;;;;5045811;28;19917;-57
2022/11/25 04:30:14;;;;;;;;;;;;;;;;;;5048778;28;19936;-57
2022/11/25 04:32:40;;;;;;;;;;;;;;;;;;5049391;28;19938;-57
2022/11/25 04:35:05;;;;;;;;;;;;;;;;;;5049356;28;19952;-60
2022/11/25 04:37:30;;;;;;;;;;;;;;;;;;5050821;28;19912;-58
2022/11/25 04:39:56;;;;;;;;;;;;;;;;;;5048149;28;19924;-58
2022/11/25 04:42:35;;;;;;;;;;;;;;;;;;5047439;28;20352;-58
2022/11/25 04:45:01;;;;;;;;;;;;;;;;;;5049377;28;19927;-58
2022/11/25 04:47:27;;;;;;;;;;;;;;;;;;5050439;28;20004;-58
2022/11/25 04:49:52;;;;;;;;;;;;;;;;;;5050051;28;19940;-57
2022/11/25 04:52:17;;;;;;;;;;;;;;;;;;5049252;28;20543;-57
2022/11/25 04:54:42;;;;;;;;;;;;;;;;;;5048027;28;19964;-57
2022/11/25 04:57:11;;;;;;;;;;;;;;;;;;5049759;28;19916;-58
2022/11/25 04:59:39;;;;;;;;;;;;;;;;;;5047994;28;19931;-58
2022/11/25 05:02:05;;;;;;;;;;;;;;;;;;5049883;28;19908;-58
2022/11/25 05:04:30;;;;;;;;;;;;;;;;;;5049817;28;19956;-58
2022/11/25 05:06:56;;;;;;;;;;;;;;;;;;5048167;28;19993;-57
2022/11/25 05:09:21;;;;;;;;;;;;;;;;;;5047037;28;20416;-58
2022/11/25 05:11:47;;;;;;;;;;;;;;;;;;5046861;28;19913;-60
2022/11/25 05:14:12;;;;;;;;;;;;;;;;;;5047010;28;20624;-58
2022/11/25 05:16:37;;;;;;;;;;;;;;;;;;5045369;28;20107;-58
2022/11/25 05:19:02;;;;;;;;;;;;;;;;;;5046230;28;19921;-59
2022/11/25 05:21:28;;;;;;;;;;;;;;;;;;5059650;28;19958;-60
2022/11/25 05:23:53;;;;;;;;;;;;;;;;;;5048869;28;19928;-59
2022/11/25 05:26:19;;;;;;;;;;;;;;;;;;5050354;28;19917;-59
2022/11/25 05:28:44;;;;;;;;;;;;;;;;;;5052639;28;20348;-60
2022/11/25 05:31:09;;;;;;;;;;;;;;;;;;5049384;28;19920;-60
2022/11/25 05:33:34;;;;;;;;;;;;;;;;;;5049210;28;20356;-60
2022/11/25 05:36:01;;;;;;;;;;;;;;;;;;5052338;28;19926;-60
2022/11/25 05:38:26;;;;;;;;;;;;;;;;;;5052094;28;19923;-60
2022/11/25 05:40:52;;;;;;;;;;;;;;;;;;5051821;28;20432;-60
2022/11/25 05:43:17;;;;;;;;;;;;;;;;;;5049424;28;19967;-60
2022/11/25 05:45:42;;;;;;;;;;;;;;;;;;5049453;28;19908;-58
2022/11/25 05:48:08;;;;;;;;;;;;;;;;;;5051965;28;20574;-58
2022/11/25 05:50:33;;;;;;;;;;;;;;;;;;5049843;28;19920;-59
2022/11/25 05:52:58;;;;;;;;;;;;;;;;;;5050893;28;19973;-58
2022/11/25 05:55:23;;;;;;;;;;;;;;;;;;5048856;28;19919;-59
2022/11/25 05:57:49;;;;;;;;;;;;;;;;;;5051985;28;19908;-59
2022/11/25 06:00:14;;;;;;;;;;;;;;;;;;5051242;28;20328;-57
2022/11/25 06:02:39;;;;;;;;;;;;;;;;;;5050653;28;19963;-58
2022/11/25 06:05:05;;;;;;;;;;;;;;;;;;5051308;28;19916;-58
2022/11/25 06:07:30;;;;;;;;;;;;;;;;;;5049204;28;19912;-59
2022/11/25 06:09:55;;;;;;;;;;;;;;;;;;5049905;28;20422;-58
2022/11/25 06:12:21;;;;;;;;;;;;;;;;;;5050451;28;19912;-59
2022/11/25 06:14:46;;;;;;;;;;;;;;;;;;5049748;28;19919;-59
2022/11/25 06:17:11;;;;;;;;;;;;;;;;;;5048339;28;19967;-59
2022/11/25 06:19:37;;;;;;;;;;;;;;;;;;5050068;28;19917;-59
2022/11/25 06:22:02;;;;;;;;;;;;;;;;;;5049111;28;19913;-59
2022/11/25 06:24:29;;;;;;;;;;;;;;;;;;5050175;28;19963;-59
2022/11/25 06:26:54;;;;;;;;;;;;;;;;;;5053192;28;19931;-59
2022/11/25 06:29:19;;;;;;;;;;;;;;;;;;5048663;28;19920;-59
2022/11/25 06:31:44;;;;;;;;;;;;;;;;;;5045555;28;19926;-59
2022/11/25 06:34:10;;;;;;;;;;;;;;;;;;5049932;28;19919;-59
2022/11/25 06:36:35;;;;;;;;;;;;;;;;;;5049585;28;19919;-59
2022/11/25 06:39:00;;;;;;;;;;;;;;;;;;5054715;28;19947;-59
2022/11/25 06:41:25;;;;;;;;;;;;;;;;;;5048535;28;19959;-59
2022/11/25 06:43:51;;;;;;;;;;;;;;;;;;5045474;28;19958;-59
2022/11/25 06:46:17;;;;;;;;;;;;;;;;;;5044643;28;20493;-58
2022/11/25 06:48:43;;;;;;;;;;;;;;;;;;5046578;28;19916;-59
2022/11/25 06:51:12;;;;;;;;;;;;;;;;;;5047151;28;19995;-59
2022/11/25 06:53:37;;;;;;;;;;;;;;;;;;5045693;28;19913;-59
2022/11/25 06:56:03;;;;;;;;;;;;;;;;;;5047153;28;19920;-59
2022/11/25 06:58:29;;;;;;;;;;;;;;;;;;5046092;28;20340;-58
2022/11/25 07:01:06;;;;;;;;;;;;;;;;;;5046608;28;19917;-59
2022/11/25 07:03:31;;;;;;;;;;;;;;;;;;5045669;28;19928;-59
2022/11/25 07:05:57;;;;;;;;;;;;;;;;;;5047085;28;19912;-58
2022/11/25 07:08:23;;;;;;;;;;;;;;;;;;5045924;28;19962;-59
2022/11/25 07:10:49;;;;;;;;;;;;;;;;;;5047251;28;19917;-59
2022/11/25 07:13:14;;;;;;;;;;;;;;;;;;5044544;28;19913;-59
2022/11/25 07:15:39;;;;;;;;;;;;;;;;;;5046238;28;19912;-59
2022/11/25 07:18:04;;;;;;;;;;;;;;;;;;5047395;28;19921;-59
2022/11/25 07:20:31;;;;;;;;;;;;;;;;;;5047552;28;20021;-58
2022/11/25 07:22:57;;;;;;;;;;;;;;;;;;5041998;28;20279;-58
2022/11/25 07:25:22;;;;;;;;;;;;;;;;;;5047000;28;19939;-59
2022/11/25 07:27:47;;;;;;;;;;;;;;;;;;5046215;28;19932;-59
2022/11/25 07:30:13;;;;;;;;;;;;;;;;;;5047459;28;19924;-58
2022/11/25 07:32:38;;;;;;;;;;;;;;;;;;5048714;28;19917;-59
2022/11/25 07:35:03;;;;;;;;;;;;;;;;;;5046281;28;19920;-59
2022/11/25 07:37:29;;;;;;;;;;;;;;;;;;5043844;28;19948;-58
2022/11/25 07:39:54;;;;;;;;;;;;;;;;;;5047011;28;19916;-59
2022/11/25 07:42:20;;;;;;;;;;;;;;;;;;5048378;28;20444;-58
2022/11/25 07:44:45;;;;;;;;;;;;;;;;;;5045026;28;19912;-59
2022/11/25 07:47:10;;;;;;;;;;;;;;;;;;5044205;28;19923;-58
2022/11/25 07:49:36;;;;;;;;;;;;;;;;;;5047558;28;19935;-59
2022/11/25 07:52:03;;;;;;;;;;;;;;;;;;5046184;28;19913;-59
2022/11/25 07:54:28;;;;;;;;;;;;;;;;;;5044056;28;19948;-59
2022/11/25 07:56:53;;;;;;;;;;;;;;;;;;5046297;28;19920;-58
2022/11/25 07:59:20;;;;;;;;;;;;;;;;;;5044942;28;19943;-58
2022/11/25 08:01:47;;;;;;;;;;;;;;;;;;5045745;28;19913;-58
2022/11/25 08:04:14;;;;;;;;;;;;;;;;;;5045622;28;20016;-58
2022/11/25 08:06:43;;;;;;;;;;;;;;;;;;5046455;28;19948;-58
2022/11/25 08:09:13;;;;;;;;;;;;;;;;;;5075797;28;20409;-60
2022/11/25 08:11:38;;;;;;;;;;;;;;;;;;5050098;28;20007;-58
2022/11/25 08:14:04;;;;;;;;;;;;;;;;;;5048262;28;20019;-59
2022/11/25 08:16:30;;;;;;;;;;;;;;;;;;5049107;28;19913;-58
2022/11/25 08:18:56;;;;;;;;;;;;;;;;;;5048642;28;20432;-58
2022/11/25 08:21:21;;;;;;;;;;;;;;;;;;5051610;28;19952;-59
2022/11/25 08:23:47;;;;;;;;;;;;;;;;;;5048869;28;19924;-59
2022/11/25 08:26:20;;;;;;;;;;;;;;;;;;5049460;28;20015;-58
2022/11/25 08:28:46;;;;;;;;;;;;;;;;;;5050826;28;20042;-58
2022/11/25 08:31:31;;;;;;;;;;;;;;;;;;5048685;28;20008;-58
2022/11/25 08:33:57;;;;;;;;;;;;;;;;;;5048104;28;19912;-58
2022/11/25 08:36:22;;;;;;;;;;;;;;;;;;5049584;28;19990;-60
2022/11/25 08:38:49;;;;;;;;;;;;;;;;;;5047419;28;19925;-58
2022/11/25 08:41:16;;;;;;;;;;;;;;;;;;5049968;28;19912;-59
2022/11/25 08:43:42;;;;;;;;;;;;;;;;;;5047714;28;19916;-59
2022/11/25 08:46:13;;;;;;;;;;;;;;;;;;5049391;28;19924;-59
2022/11/25 08:48:38;;;;;;;;;;;;;;;;;;5048070;28;19942;-60
2022/11/25 08:51:07;;;;;;;;;;;;;;;;;;5049496;28;19916;-59
2022/11/25 08:53:32;;;;;;;;;;;;;;;;;;5049157;28;19912;-59
2022/11/25 08:55:57;;;;;;;;;;;;;;;;;;5047107;28;20184;-59
2022/11/25 08:58:23;;;;;;;;;;;;;;;;;;5048673;28;20362;-59
2022/11/25 09:00:48;;;;;;;;;;;;;;;;;;5047737;28;19938;-59
2022/11/25 09:03:13;;;;;;;;;;;;;;;;;;5045602;28;19978;-59
2022/11/25 09:05:40;;;;;;;;;;;;;;;;;;5049241;28;19913;-58
2022/11/25 09:08:06;;;;;;;;;;;;;;;;;;5048330;28;20429;-59
2022/11/25 09:10:32;;;;;;;;;;;;;;;;;;5046600;28;20008;-59
2022/11/25 09:12:57;;;;;;;;;;;;;;;;;;5049584;28;20405;-59
2022/11/25 09:15:23;;;;;;;;;;;;;;;;;;5044681;28;19966;-59
2022/11/25 09:17:48;;;;;;;;;;;;;;;;;;5048560;28;20411;-60
2022/11/25 09:20:13;;;;;;;;;;;;;;;;;;5048948;28;20362;-59
2022/11/25 09:22:39;;;;;;;;;;;;;;;;;;5050223;28;19913;-59
2022/11/25 09:25:04;;;;;;;;;;;;;;;;;;5048385;28;20290;-59
2022/11/25 09:27:30;;;;;;;;;;;;;;;;;;5050937;28;19912;-59
2022/11/25 09:29:55;;;;;;;;;;;;;;;;;;5049090;28;19913;-58
2022/11/25 09:32:20;;;;;;;;;;;;;;;;;;5051050;28;19913;-59
2022/11/25 09:34:45;;;;;;;;;;;;;;;;;;5056558;28;20477;-60
2022/11/25 09:37:11;;;;;;;;;;;;;;;;;;5058153;28;19920;-59
2022/11/25 09:39:36;;;;;;;;;;;;;;;;;;5052629;28;19916;-58
2022/11/25 09:48:22;;;;;;;;;;;;;;;;;;5045667;28;19983;-59
2022/11/25 09:51:03;;;;;;;;;;;;;;;;;;5047000;28;19941;-60
2022/11/25 09:53:31;;;;;;;;;;;;;;;;;;5046926;28;19913;-59
2022/11/25 09:56:01;;;;;;;;;;;;;;;;;;5049681;28;19913;-59
2022/11/25 09:58:32;;;;;;;;;;;;;;;;;;5047812;28;19909;-59
2022/11/25 10:00:59;;;;;;;;;;;;;;;;;;5048461;28;20370;-59
2022/11/25 10:03:28;;;;;;;;;;;;;;;;;;5047572;28;19913;-59
2022/11/25 10:05:56;;;;;;;;;;;;;;;;;;5048244;28;19913;-60
2022/11/25 10:08:23;;;;;;;;;;;;;;;;;;5047068;28;19912;-60
2022/11/25 10:10:52;;;;;;;;;;;;;;;;;;5049002;28;19917;-60
2022/11/25 10:13:30;;;;;;;;;;;;;;;;;;5048417;28;19913;-60
2022/11/25 10:15:56;;;;;;;;;;;;;;;;;;5047136;28;19909;-59
2022/11/25 10:18:22;;;;;;;;;;;;;;;;;;5046674;28;20015;-59
2022/11/25 10:20:48;;;;;;;;;;;;;;;;;;5048138;28;20003;-60
2022/11/25 10:23:19;;;;;;;;;;;;;;;;;;5048008;28;20267;-60
2022/11/25 10:25:45;;;;;;;;;;;;;;;;;;5047444;28;19916;-60
2022/11/25 10:28:18;;;;;;;;;;;;;;;;;;5046301;28;19916;-60
2022/11/25 10:30:49;;;;;;;;;;;;;;;;;;5045601;28;19908;-61
2022/11/25 10:33:29;;;;;;;;;;;;;;;;;;5049479;28;19920;-60
2022/11/25 10:35:57;;;;;;;;;;;;;;;;;;5047929;28;19912;-59
2022/11/25 10:38:28;;;;;;;;;;;;;;;;;;5048357;28;20411;-60
2022/11/25 10:40:54;;;;;;;;;;;;;;;;;;5048527;28;19912;-59
2022/11/25 10:43:19;;;;;;;;;;;;;;;;;;5048022;28;19923;-59
2022/11/25 10:45:47;;;;;;;;;;;;;;;;;;5042315;28;19916;-60
2022/11/25 10:48:32;;;;;;;;;;;;;;;;;;5047177;28;20050;-60
2022/11/25 10:51:00;;;;;;;;;;;;;;;;;;5047561;28;19920;-60
2022/11/25 10:53:26;;;;;;;;;;;;;;;;;;5046644;28;19913;-58
2022/11/25 10:56:10;;;;;;;;;;;;;;;;;;5046540;28;20313;-59
2022/11/25 10:58:37;;;;;;;;;;;;;;;;;;5046834;28;19934;-59
2022/11/25 11:01:04;;;;;;;;;;;;;;;;;;5045810;28;19912;-59
2022/11/25 11:03:30;;;;;;;;;;;;;;;;;;5045022;28;20020;-59
2022/11/25 11:05:55;;;;;;;;;;;;;;;;;;5049083;28;20003;-59
2022/11/25 11:08:22;;;;;;;;;;;;;;;;;;5046810;28;19920;-59
2022/11/25 11:11:07;;;;;;;;;;;;;;;;;;5047934;28;19913;-59
2022/11/25 11:13:33;;;;;;;;;;;;;;;;;;5045725;28;19917;-58
2022/11/25 11:15:58;;;;;;;;;;;;;;;;;;5047653;28;20400;-59
2022/11/25 11:18:35;;;;;;;;;;;;;;;;;;5046120;28;19912;-59
2022/11/25 11:21:01;;;;;;;;;;;;;;;;;;5044398;28;19951;-59
2022/11/25 11:23:27;;;;;;;;;;;;;;;;;;5049201;28;20386;-62
2022/11/25 11:26:08;;;;;;;;;;;;;;;;;;5044215;28;20433;-59
2022/11/25 11:28:34;;;;;;;;;;;;;;;;;;5047999;28;19913;-60
2022/11/25 11:31:00;;;;;;;;;;;;;;;;;;5047411;28;19955;-60
2022/11/25 11:33:25;;;;;;;;;;;;;;;;;;5048132;28;19917;-59
2022/11/25 11:35:59;;;;;;;;;;;;;;;;;;5046365;28;19920;-59
2022/11/25 11:38:30;;;;;;;;;;;;;;;;;;5047923;28;20389;-60
2022/11/25 11:40:59;;;;;;;;;;;;;;;;;;5047960;28;19924;-58
2022/11/25 11:43:28;;;;;;;;;;;;;;;;;;5046924;28;19913;-59
2022/11/25 11:46:14;;;;;;;;;;;;;;;;;;5045595;28;19999;-59
2022/11/25 11:48:41;;;;;;;;;;;;;;;;;;5046138;28;19962;-59
2022/11/25 11:51:10;;;;;;;;;;;;;;;;;;5047176;28;20025;-59
2022/11/25 11:53:35;;;;;;;;;;;;;;;;;;5045500;28;19949;-59
2022/11/25 11:56:00;;;;;;;;;;;;;;;;;;5046778;28;20352;-60
2022/11/25 11:58:41;;;;;;;;;;;;;;;;;;5045371;28;19912;-60
2022/11/25 12:01:24;;;;;;;;;;;;;;;;;;5045214;28;19912;-59
2022/11/25 12:04:02;;;;;;;;;;;;;;;;;;5043553;28;19995;-59
2022/11/25 12:06:30;;;;;;;;;;;;;;;;;;5045132;28;20290;-58
2022/11/25 12:09:00;;;;;;;;;;;;;;;;;;5046079;28;19912;-59
2022/11/25 12:11:31;;;;;;;;;;;;;;;;;;5046669;28;20491;-59
2022/11/25 12:14:09;;;;;;;;;;;;;;;;;;5045823;28;19916;-60
2022/11/25 12:16:47;;;;;;;;;;;;;;;;;;5043286;28;19913;-59
2022/11/25 12:19:15;;;;;;;;;;;;;;;;;;5045945;28;19974;-59
2022/11/25 12:22:01;;;;;;;;;;;;;;;;;;5044913;28;19955;-59
2022/11/25 12:24:44;;;;;;;;;;;;;;;;;;5045490;28;19932;-58
2022/11/25 12:27:29;;;;;;;;;;;;;;;;;;5045802;28;19913;-59
2022/11/25 12:29:54;;;;;;;;;;;;;;;;;;5046471;28;19978;-59
2022/11/25 12:32:40;;;;;;;;;;;;;;;;;;5046082;28;20385;-59
2022/11/25 12:35:08;;;;;;;;;;;;;;;;;;5048287;28;19919;-59
2022/11/25 12:37:52;;;;;;;;;;;;;;;;;;5044857;28;20015;-59
2022/11/25 12:40:41;;;;;;;;;;;;;;;;;;5046040;28;20423;-59
2022/11/25 12:43:15;;;;;;;;;;;;;;;;;;5042210;28;19958;-59
2022/11/25 12:45:42;;;;;;;;;;;;;;;;;;5044055;28;19963;-59
2022/11/25 12:48:09;;;;;;;;;;;;;;;;;;5046009;28;19966;-60
2022/11/25 12:50:54;;;;;;;;;;;;;;;;;;5045444;28;19917;-59
2022/11/25 12:53:23;;;;;;;;;;;;;;;;;;5046289;28;19919;-60
2022/11/25 12:55:50;;;;;;;;;;;;;;;;;;5050644;28;19939;-60
2022/11/25 12:58:26;;;;;;;;;;;;;;;;;;5050123;28;19954;-60
2022/11/25 13:01:05;;;;;;;;;;;;;;;;;;5049275;28;19943;-60
2022/11/25 13:03:37;;;;;;;;;;;;;;;;;;5049650;28;19920;-60
2022/11/25 13:15:14;;;;;;;;;;;;;;;;;;5048679;28;20475;-60
2022/11/25 13:17:41;;;;;;;;;;;;;;;;;;5050401;28;20619;-59
2022/11/25 13:20:24;;;;;;;;;;;;;;;;;;5049739;28;20023;-60
2022/11/25 13:23:09;;;;;;;;;;;;;;;;;;5049398;28;20042;-59
2022/11/25 13:25:36;;;;;;;;;;;;;;;;;;5048576;28;20031;-59
2022/11/25 13:28:03;;;;;;;;;;;;;;;;;;5048406;28;19935;-62
2022/11/25 13:30:31;;;;;;;;;;;;;;;;;;5049801;28;19912;-60
2022/11/25 13:33:06;;;;;;;;;;;;;;;;;;5048721;28;19916;-60
2022/11/25 13:35:33;;;;;;;;;;;;;;;;;;5048027;28;19939;-60
2022/11/25 13:37:59;;;;;;;;;;;;;;;;;;5064039;28;19933;-60
2022/11/25 13:40:25;;;;;;;;;;;;;;;;;;5048778;28;20409;-60
2022/11/25 13:42:51;;;;;;;;;;;;;;;;;;5048478;28;19917;-60
2022/11/25 13:45:27;;;;;;;;;;;;;;;;;;5046926;28;19924;-60
2022/11/25 13:47:52;;;;;;;;;;;;;;;;;;5047649;28;19967;-60
2022/11/25 13:50:23;;;;;;;;;;;;;;;;;;5048978;28;19912;-60
2022/11/25 13:53:02;;;;;;;;;;;;;;;;;;5049092;28;19928;-59
2022/11/25 13:55:36;;;;;;;;;;;;;;;;;;5047454;28;19930;-60
2022/11/25 13:58:20;;;;;;;;;;;;;;;;;;5045105;28;20006;-59
2022/11/25 14:00:57;;;;;;;;;;;;;;;;;;5048400;28;19977;-59
2022/11/25 14:03:23;;;;;;;;;;;;;;;;;;5046844;28;19932;-58
2022/11/25 14:05:52;;;;;;;;;;;;;;;;;;5045329;28;19946;-60
2022/11/25 14:08:20;;;;;;;;;;;;;;;;;;5046957;28;20049;-60
2022/11/25 14:10:49;;;;;;;;;;;;;;;;;;5049402;28;19913;-60
2022/11/25 14:13:30;;;;;;;;;;;;;;;;;;5046983;28;19913;-60
2022/11/25 14:16:15;;;;;;;;;;;;;;;;;;5044888;28;20548;-60
2022/11/25 14:18:47;;;;;;;;;;;;;;;;;;5039607;28;20003;-60
2022/11/25 14:21:23;;;;;;;;;;;;;;;;;;5053995;28;19913;-60
2022/11/25 14:23:48;;;;;;;;;;;;;;;;;;5051430;28;19912;-59
2022/11/25 14:26:30;;;;;;;;;;;;;;;;;;5047845;28;20443;-60
2022/11/25 14:29:11;;;;;;;;;;;;;;;;;;5051451;28;19927;-60
2022/11/25 14:31:39;;;;;;;;;;;;;;;;;;5054031;28;19912;-60
2022/11/25 14:34:19;;;;;;;;;;;;;;;;;;5048149;28;19920;-60
2022/11/25 14:36:48;;;;;;;;;;;;;;;;;;5047567;28;19920;-59
2022/11/25 14:39:33;;;;;;;;;;;;;;;;;;5052743;28;19939;-60
2022/11/25 14:41:59;;;;;;;;;;;;;;;;;;5047080;28;20224;-60
2022/11/25 14:44:30;;;;;;;;;;;;;;;;;;5045402;28;19913;-60
2022/11/25 14:46:57;;;;;;;;;;;;;;;;;;5046447;28;19938;-60
2022/11/25 14:49:22;;;;;;;;;;;;;;;;;;5046227;28;19920;-60
2022/11/25 14:51:49;;;;;;;;;;;;;;;;;;5048896;28;19912;-60
2022/11/25 14:54:15;;;;;;;;;;;;;;;;;;5048048;28;19921;-60
2022/11/25 14:56:41;;;;;;;;;;;;;;;;;;5051683;28;20474;-60
2022/11/25 14:59:08;;;;;;;;;;;;;;;;;;5051375;28;19995;-60
2022/11/25 15:01:34;;;;;;;;;;;;;;;;;;5049716;28;19929;-60
2022/11/25 15:04:02;;;;;;;;;;;;;;;;;;5044928;28;19927;-59
2022/11/25 15:06:32;;;;;;;;;;;;;;;;;;5047229;28;20300;-60
2022/11/25 15:08:57;;;;;;;;;;;;;;;;;;5050868;28;19944;-59
2022/11/25 15:11:24;;;;;;;;;;;;;;;;;;5046767;28;20002;-59
2022/11/25 15:13:59;;;;;;;;;;;;;;;;;;5047708;28;20287;-59
2022/11/25 15:16:29;;;;;;;;;;;;;;;;;;5051920;28;19913;-59
2022/11/25 15:18:58;;;;;;;;;;;;;;;;;;5041556;28;19932;-59
2022/11/25 15:21:28;;;;;;;;;;;;;;;;;;5048359;28;19912;-59
2022/11/25 15:23:54;;;;;;;;;;;;;;;;;;5045883;28;19920;-60
2022/11/25 15:26:21;;;;;;;;;;;;;;;;;;5046808;28;20446;-60
2022/11/25 15:28:52;;;;;;;;;;;;;;;;;;5047353;28;19975;-59
2022/11/25 15:31:19;;;;;;;;;;;;;;;;;;5045548;28;19912;-59
2022/11/25 15:33:45;;;;;;;;;;;;;;;;;;5053787;28;20309;-59
2022/11/25 15:36:10;;;;;;;;;;;;;;;;;;5056518;28;20340;-58
2022/11/25 15:38:37;;;;;;;;;;;;;;;;;;5051734;28;19916;-58
2022/11/25 15:41:04;;;;;;;;;;;;;;;;;;5050493;28;20023;-59
2022/11/25 15:43:30;;;;;;;;;;;;;;;;;;5047021;28;19931;-59
2022/11/25 15:46:00;;;;;;;;;;;;;;;;;;5046305;28;20535;-59
2022/11/25 15:48:27;;;;;;;;;;;;;;;;;;5046954;28;19912;-58
2022/11/25 15:50:57;;;;;;;;;;;;;;;;;;5046826;28;20029;-59
2022/11/25 15:53:24;;;;;;;;;;;;;;;;;;5047732;28;20007;-58
2022/11/25 15:55:50;;;;;;;;;;;;;;;;;;5047028;28;19920;-59
2022/11/25 16:04:23;;;;;;;;;;;;;;;;;;5046266;28;19962;-58
2022/11/25 16:06:56;;;;;;;;;;;;;;;;;;5048408;28;19962;-59
2022/11/25 16:09:22;;;;;;;;;;;;;;;;;;5049622;28;19913;-58
2022/11/25 16:11:47;;;;;;;;;;;;;;;;;;5045118;28;20740;-58
2022/11/25 16:14:33;;;;;;;;;;;;;;;;;;5042580;28;20003;-58
2022/11/25 16:17:03;;;;;;;;;;;;;;;;;;5046166;28;20016;-58
2022/11/25 16:19:47;;;;;;;;;;;;;;;;;;5045600;28;20375;-58
2022/11/25 16:22:14;;;;;;;;;;;;;;;;;;5046684;28;19913;-58
2022/11/25 16:24:44;;;;;;;;;;;;;;;;;;5049610;28;20573;-58
2022/11/25 16:27:15;;;;;;;;;;;;;;;;;;5046924;28;19916;-60
2022/11/25 16:30:07;;;;;;;;;;;;;;;;;;5050388;28;19913;-59
2022/11/25 16:32:32;;;;;;;;;;;;;;;;;;5049677;28;19917;-60
2022/11/25 16:35:19;;;;;;;;;;;;;;;;;;5050722;28;19916;-59
2022/11/25 16:37:44;;;;;;;;;;;;;;;;;;5052575;28;20378;-59
2022/11/25 16:40:13;;;;;;;;;;;;;;;;;;5049368;28;19919;-59
2022/11/25 16:42:39;;;;;;;;;;;;;;;;;;5049974;28;19917;-59
2022/11/25 16:45:14;;;;;;;;;;;;;;;;;;5049833;28;19919;-60
2022/11/25 16:47:39;;;;;;;;;;;;;;;;;;5048567;28;20405;-59
2022/11/25 16:50:11;;;;;;;;;;;;;;;;;;5050424;28;19935;-59
2022/11/25 16:52:36;;;;;;;;;;;;;;;;;;5052991;28;20302;-59
2022/11/25 16:55:01;;;;;;;;;;;;;;;;;;5049928;28;19913;-60
2022/11/25 16:57:27;;;;;;;;;;;;;;;;;;5048875;28;20350;-60
2022/11/25 16:59:56;;;;;;;;;;;;;;;;;;5049580;28;20341;-60
2022/11/25 17:02:21;;;;;;;;;;;;;;;;;;5048834;28;19913;-59
2022/11/25 17:04:47;;;;;;;;;;;;;;;;;;5048482;28;20332;-60
2022/11/25 17:07:13;;;;;;;;;;;;;;;;;;5044439;28;19948;-58
2022/11/25 17:09:38;;;;;;;;;;;;;;;;;;5048487;28;19966;-59
2022/11/25 17:12:05;;;;;;;;;;;;;;;;;;5049517;28;20002;-59
2022/11/25 17:14:33;;;;;;;;;;;;;;;;;;5050894;28;20522;-59
2022/11/25 17:16:58;;;;;;;;;;;;;;;;;;5053206;28;19963;-59